createdAt,value
2022-09-01T00:02:56.211Z,2.55
2022-09-01T00:05:58.276Z,2.30
2022-09-01T00:09:05.494Z,2.30
2022-09-01T00:12:09.576Z,2.22
2022-09-01T00:15:13.056Z,2.40
2022-09-01T00:18:15.921Z,1.58
2022-09-01T00:21:23.608Z,2.05
2022-09-01T00:24:26.748Z,1.67
2022-09-01T00:27:30.575Z,2.15
2022-09-01T00:30:33.204Z,2.13
2022-09-01T00:33:35.830Z,2.08
2022-09-01T00:36:38.269Z,2.03
2022-09-01T00:39:40.327Z,2.00
2022-09-01T00:42:44.728Z,2.00
2022-09-01T00:45:47.185Z,2.00
2022-09-01T00:49:37.234Z,2.03
2022-09-01T00:52:45.484Z,1.73
2022-09-01T00:55:48.066Z,2.10
2022-09-01T00:58:51.953Z,1.92
2022-09-01T01:01:54.464Z,1.83
2022-09-01T01:05:00.765Z,1.83
2022-09-01T01:08:04.423Z,2.20
2022-09-01T01:11:10.166Z,1.73
2022-09-01T01:14:12.501Z,1.95
2022-09-01T01:17:14.610Z,2.28
2022-09-01T01:20:37.647Z,1.75
2022-09-01T01:24:01.376Z,1.42
2022-09-01T01:27:05.149Z,2.38
2022-09-01T01:30:11.234Z,1.83
2022-09-01T01:33:13.627Z,2.45
2022-09-01T01:36:36.524Z,1.50
2022-09-01T01:39:43.016Z,2.22
2022-09-01T01:42:47.080Z,1.63
2022-09-01T01:45:52.303Z,2.33
2022-09-01T01:48:57.632Z,2.20
2022-09-01T01:51:59.959Z,2.47
2022-09-01T01:55:12.597Z,2.10
2022-09-01T01:58:22.098Z,2.50
2022-09-01T02:01:29.313Z,1.75
2022-09-01T02:04:34.407Z,2.47
2022-09-01T02:07:43.029Z,2.65
2022-09-01T02:10:47.583Z,2.45
2022-09-01T02:13:49.973Z,1.60
2022-09-01T02:16:53.396Z,2.50
2022-09-01T02:19:57.706Z,2.83
2022-09-01T02:23:09.494Z,2.38
2022-09-01T02:26:17.511Z,2.30
2022-09-01T02:29:25.584Z,1.77
2022-09-01T02:32:27.896Z,2.20
2022-09-01T02:35:34.419Z,1.95
2022-09-01T02:38:36.891Z,1.92
2022-09-01T02:41:41.488Z,1.85
2022-09-01T02:44:44.331Z,2.38
2022-09-01T02:47:48.659Z,1.90
2022-09-01T02:50:51.710Z,2.47
2022-09-01T02:53:55.205Z,2.25
2022-09-01T02:56:57.267Z,2.13
2022-09-01T03:00:02.445Z,2.35
2022-09-01T03:03:14.558Z,1.95
2022-09-01T03:06:24.483Z,2.55
2022-09-01T03:09:27.179Z,2.47
2022-09-01T03:12:29.260Z,1.80
2022-09-01T03:15:31.562Z,2.75
2022-09-01T03:18:34.969Z,1.65
2022-09-01T03:21:41.106Z,2.40
2022-09-01T03:24:43.520Z,2.28
2022-09-01T03:27:46.043Z,2.65
2022-09-01T03:30:51.444Z,2.10
2022-09-01T03:33:57.218Z,2.13
2022-09-01T03:37:09.870Z,1.83
2022-09-01T03:40:13.241Z,1.70
2022-09-01T03:43:17.043Z,2.47
2022-09-01T03:46:22.234Z,2.38
2022-09-01T03:49:28.864Z,1.75
2022-09-01T03:52:33.129Z,2.60
2022-09-01T03:55:37.781Z,2.22
2022-09-01T03:58:42.943Z,2.10
2022-09-01T04:01:46.302Z,2.30
2022-09-01T04:04:48.764Z,2.38
2022-09-01T04:07:52.268Z,2.05
2022-09-01T04:10:54.728Z,1.75
2022-09-01T04:13:57.775Z,2.28
2022-09-01T04:17:18.773Z,2.08
2022-09-01T04:20:22.074Z,1.88
2022-09-01T04:23:37.235Z,2.10
2022-09-01T04:26:48.740Z,2.25
2022-09-01T04:29:54.766Z,1.90
2022-09-01T04:33:00.791Z,2.00
2022-09-01T04:36:05.552Z,1.60
2022-09-01T04:39:12.539Z,2.50
2022-09-01T04:42:16.538Z,1.67
2022-09-01T04:45:25.421Z,2.10
2022-09-01T04:48:29.589Z,1.90
2022-09-01T04:51:32.708Z,2.50
2022-09-01T04:54:37.093Z,2.08
2022-09-01T04:57:42.562Z,2.30
2022-09-01T05:00:48.433Z,2.47
2022-09-01T05:04:04.149Z,2.30
2022-09-01T05:07:16.360Z,1.95
2022-09-01T05:10:19.970Z,2.10
2022-09-01T05:13:43.600Z,1.88
2022-09-01T05:16:46.681Z,1.90
2022-09-01T05:19:51.215Z,2.53
2022-09-01T05:22:55.190Z,2.22
2022-09-01T05:25:57.757Z,2.40
2022-09-01T05:29:04.876Z,2.17
2022-09-01T05:32:09.067Z,1.85
2022-09-01T05:35:13.338Z,2.50
2022-09-01T05:38:15.913Z,2.28
2022-09-01T05:41:20.513Z,2.45
2022-09-01T05:44:23.148Z,2.03
2022-09-01T05:47:27.071Z,2.42
2022-09-01T05:50:31.626Z,2.15
2022-09-01T05:53:34.405Z,2.30
2022-09-01T05:56:43.933Z,2.08
2022-09-01T05:59:54.194Z,2.10
2022-09-01T06:02:59.642Z,1.88
2022-09-01T06:06:09.667Z,2.60
2022-09-01T06:09:13.660Z,1.98
2022-09-01T06:12:23.279Z,2.60
2022-09-01T06:15:25.407Z,2.85
2022-09-01T06:18:29.308Z,2.88
2022-09-01T06:21:34.602Z,2.00
2022-09-01T06:24:40.141Z,2.38
2022-09-01T06:27:44.591Z,2.25
2022-09-01T06:30:49.239Z,2.05
2022-09-01T06:33:56.073Z,2.33
2022-09-01T06:36:58.281Z,2.45
2022-09-01T06:40:00.771Z,2.75
2022-09-01T06:43:08.171Z,2.72
2022-09-01T06:46:13.362Z,2.90
2022-09-01T06:49:15.748Z,2.33
2022-09-01T06:52:18.354Z,2.10
2022-09-01T06:55:20.607Z,2.53
2022-09-01T06:58:24.291Z,2.15
2022-09-01T07:01:28.461Z,2.70
2022-09-01T07:04:32.217Z,2.05
2022-09-01T07:08:04.867Z,2.22
2022-09-01T07:18:12.738Z,2.25
2022-09-01T07:24:37.486Z,1.98
2022-09-01T07:28:00.539Z,2.25
2022-09-01T07:34:38.700Z,1.92
2022-09-01T07:44:47.667Z,2.55
2022-09-01T07:49:01.158Z,1.73
2022-09-01T07:51:44.242Z,1.50
2022-09-01T07:54:46.456Z,2.00
2022-09-01T07:57:48.571Z,2.00
2022-09-01T08:00:53.577Z,1.90
2022-09-01T08:03:58.805Z,1.70
2022-09-01T08:07:01.883Z,1.70
2022-09-01T08:10:07.478Z,1.65
2022-09-01T08:13:15.301Z,2.50
2022-09-01T08:16:18.431Z,1.85
2022-09-01T08:19:21.370Z,2.20
2022-09-01T08:22:46.656Z,1.80
2022-09-01T08:25:56.846Z,2.03
2022-09-01T08:28:59.395Z,1.85
2022-09-01T08:32:16.200Z,1.90
2022-09-01T08:35:18.436Z,2.25
2022-09-01T08:38:20.745Z,2.10
2022-09-01T08:41:35.292Z,2.13
2022-09-01T08:44:46.779Z,1.70
2022-09-01T08:48:22.518Z,2.90
2022-09-01T08:51:32.836Z,1.80
2022-09-01T08:54:41.064Z,2.33
2022-09-01T08:57:45.946Z,3.10
2022-09-01T09:01:08.667Z,2.38
2022-09-01T09:04:27.740Z,2.38
2022-09-01T09:08:08.166Z,2.75
2022-09-01T09:11:19.494Z,2.20
2022-09-01T09:14:46.174Z,1.67
2022-09-01T09:18:00.307Z,2.03
2022-09-01T09:24:37.076Z,1.38
2022-09-01T09:27:44.205Z,2.03
2022-09-01T09:30:47.132Z,2.20
2022-09-01T09:33:52.872Z,1.83
2022-09-01T09:36:57.387Z,1.63
2022-09-01T09:40:39.585Z,2.25
2022-09-01T09:44:01.234Z,2.13
2022-09-01T09:47:10.218Z,1.70
2022-09-01T09:50:35.200Z,1.98
2022-09-01T09:53:37.317Z,1.88
2022-09-01T09:56:44.740Z,1.98
2022-09-01T10:00:01.381Z,1.67
2022-09-01T10:03:13.310Z,1.52
2022-09-01T10:06:30.603Z,1.42
2022-09-01T10:09:32.673Z,1.85
2022-09-01T10:12:35.204Z,2.10
2022-09-01T10:15:40.326Z,1.02
2022-09-01T10:18:48.826Z,1.73
2022-09-01T10:21:51.689Z,1.17
2022-09-01T10:24:54.014Z,1.15
2022-09-01T10:28:02.382Z,1.33
2022-09-01T10:34:13.938Z,0.93
2022-09-01T10:37:17.203Z,0.95
2022-09-01T10:40:35.486Z,0.93
2022-09-01T10:43:50.132Z,1.45
2022-09-01T10:46:58.856Z,1.60
2022-09-01T10:50:22.723Z,1.50
2022-09-01T10:53:33.609Z,1.25
2022-09-01T10:56:51.219Z,1.27
2022-09-01T10:59:56.743Z,1.42
2022-09-01T11:07:11.293Z,1.17
2022-09-01T11:10:36.113Z,1.38
2022-09-01T11:14:18.128Z,1.58
2022-09-01T11:17:23.267Z,1.80
2022-09-01T11:20:38.820Z,1.38
2022-09-01T11:23:41.840Z,1.23
2022-09-01T11:26:47.962Z,1.60
2022-09-01T11:29:56.070Z,1.48
2022-09-01T11:33:09.645Z,1.20
2022-09-01T11:36:49.474Z,1.02
2022-09-01T11:39:58.780Z,1.35
2022-09-01T11:43:12.437Z,1.10
2022-09-01T11:46:25.925Z,1.05
2022-09-01T11:49:32.738Z,0.80
2022-09-01T11:52:37.041Z,1.50
2022-09-01T11:55:45.280Z,1.30
2022-09-01T11:58:47.775Z,1.30
2022-09-01T12:01:58.149Z,1.83
2022-09-01T12:05:02.610Z,1.65
2022-09-01T12:08:24.305Z,1.35
2022-09-01T12:11:31.163Z,2.17
2022-09-01T12:14:55.100Z,1.50
2022-09-01T12:18:21.115Z,1.83
2022-09-01T12:21:24.866Z,1.30
2022-09-01T12:24:27.724Z,1.23
2022-09-01T12:27:30.120Z,1.30
2022-09-01T12:30:39.763Z,1.33
2022-09-01T12:33:44.036Z,1.25
2022-09-01T12:37:04.410Z,1.23
2022-09-01T12:40:21.146Z,1.73
2022-09-01T12:43:34.245Z,1.45
2022-09-01T12:46:44.886Z,1.67
2022-09-01T12:49:52.580Z,2.03
2022-09-01T12:53:00.403Z,1.60
2022-09-01T12:56:18.196Z,1.77
2022-09-01T12:59:36.399Z,1.42
2022-09-01T13:02:44.026Z,1.63
2022-09-01T13:05:52.200Z,1.48
2022-09-01T13:08:54.518Z,1.52
2022-09-01T13:12:12.392Z,1.55
2022-09-01T13:18:24.851Z,1.65
2022-09-01T13:21:27.778Z,1.67
2022-09-01T13:24:31.622Z,1.70
2022-09-01T13:27:34.118Z,1.27
2022-09-01T13:30:36.188Z,1.77
2022-09-01T13:37:00.910Z,1.58
2022-09-01T13:40:06.086Z,1.50
2022-09-01T13:43:08.714Z,1.25
2022-09-01T13:46:11.745Z,1.15
2022-09-01T13:52:38.835Z,1.60
2022-09-01T13:55:41.831Z,1.35
2022-09-01T13:58:44.046Z,1.33
2022-09-01T14:01:48.554Z,2.33
2022-09-01T14:04:50.902Z,1.50
2022-09-01T14:07:54.580Z,1.40
2022-09-01T14:10:56.725Z,1.40
2022-09-01T14:13:58.998Z,2.17
2022-09-01T14:17:02.605Z,1.25
2022-09-01T14:20:07.746Z,1.48
2022-09-01T14:23:13.642Z,1.60
2022-09-01T14:26:16.895Z,1.50
2022-09-01T14:29:20.206Z,1.10
2022-09-01T14:32:26.973Z,1.15
2022-09-01T14:35:33.316Z,1.60
2022-09-01T14:38:35.538Z,1.20
2022-09-01T14:41:37.600Z,1.13
2022-09-01T14:44:39.636Z,1.23
2022-09-01T14:47:41.797Z,1.50
2022-09-01T14:50:47.522Z,1.63
2022-09-01T14:53:59.977Z,1.13
2022-09-01T15:00:27.483Z,1.17
2022-09-01T15:03:29.554Z,1.42
2022-09-01T15:06:32.284Z,0.80
2022-09-01T15:09:35.528Z,1.17
2022-09-01T15:12:40.017Z,1.10
2022-09-01T15:15:42.281Z,1.42
2022-09-01T15:18:44.388Z,2.30
2022-09-01T15:21:47.263Z,1.17
2022-09-01T15:24:49.481Z,1.10
2022-09-01T15:27:51.540Z,1.23
2022-09-01T15:30:54.490Z,1.23
2022-09-01T15:33:57.977Z,1.38
2022-09-01T15:37:00.001Z,1.10
2022-09-01T15:40:02.562Z,1.27
2022-09-01T15:43:05.874Z,1.00
2022-09-01T15:46:07.993Z,1.30
2022-09-01T15:49:10.948Z,1.38
2022-09-01T15:52:13.014Z,1.00
2022-09-01T15:55:15.175Z,1.05
2022-09-01T15:58:19.259Z,1.83
2022-09-01T16:01:22.515Z,1.40
2022-09-01T16:04:27.779Z,1.20
2022-09-01T16:07:30.202Z,1.17
2022-09-01T16:10:34.956Z,1.15
2022-09-01T16:13:41.182Z,1.23
2022-09-01T16:16:49.417Z,1.00
2022-09-01T16:20:02.221Z,1.23
2022-09-01T16:23:22.574Z,1.42
2022-09-01T16:26:24.655Z,1.08
2022-09-01T16:29:35.213Z,1.67
2022-09-01T16:32:45.762Z,1.70
2022-09-01T16:36:28.854Z,2.50
2022-09-01T16:39:38.458Z,2.58
2022-09-01T16:42:48.832Z,2.42
2022-09-01T16:46:07.852Z,2.08
2022-09-01T16:49:24.422Z,3.25
2022-09-01T16:52:29.818Z,2.28
2022-09-01T16:55:54.376Z,2.17
2022-09-01T16:59:22.669Z,2.50
2022-09-01T17:02:52.785Z,2.22
2022-09-01T17:06:01.865Z,2.63
2022-09-01T17:09:31.083Z,3.47
2022-09-01T17:15:41.106Z,2.45
2022-09-01T17:18:51.355Z,2.75
2022-09-01T17:22:03.806Z,2.22
2022-09-01T17:25:10.103Z,2.42
2022-09-01T17:28:22.461Z,3.13
2022-09-01T17:31:36.785Z,3.75
2022-09-01T17:34:51.941Z,3.35
2022-09-01T17:38:09.139Z,3.63
2022-09-01T17:41:34.573Z,2.22
2022-09-01T17:44:45.907Z,1.92
2022-09-01T17:48:12.668Z,2.13
2022-09-01T17:51:32.979Z,1.92
2022-09-01T17:55:13.367Z,1.73
2022-09-01T17:58:33.358Z,1.70
2022-09-01T18:01:49.807Z,1.35
2022-09-01T18:05:01.278Z,0.98
2022-09-01T18:08:16.044Z,1.50
2022-09-01T18:11:38.818Z,1.40
2022-09-01T18:15:01.861Z,1.60
2022-09-01T18:18:27.991Z,1.70
2022-09-01T18:21:35.918Z,1.10
2022-09-01T18:24:58.168Z,2.17
2022-09-01T18:28:01.218Z,1.40
2022-09-01T18:31:21.275Z,1.27
2022-09-01T18:34:26.169Z,1.33
2022-09-01T18:37:42.885Z,1.38
2022-09-01T18:40:45.068Z,1.35
2022-09-01T18:44:03.910Z,1.83
2022-09-01T18:47:24.697Z,1.33
2022-09-01T18:50:58.651Z,1.40
2022-09-01T18:54:27.502Z,1.55
2022-09-01T18:57:43.193Z,1.42
2022-09-01T19:01:04.390Z,1.45
2022-09-01T19:04:24.763Z,1.17
2022-09-01T19:07:50.025Z,1.70
2022-09-01T19:11:24.381Z,1.10
2022-09-01T19:14:55.527Z,1.17
2022-09-01T19:18:15.667Z,1.25
2022-09-01T19:21:24.922Z,2.00
2022-09-01T19:24:38.540Z,1.20
2022-09-01T19:27:40.716Z,1.40
2022-09-01T19:30:48.384Z,1.35
2022-09-01T19:34:13.978Z,1.33
2022-09-01T19:37:16.495Z,1.75
2022-09-01T19:40:24.779Z,1.17
2022-09-01T19:43:34.072Z,1.83
2022-09-01T19:46:48.427Z,1.17
2022-09-01T19:50:24.183Z,1.65
2022-09-01T19:53:52.169Z,1.48
2022-09-01T19:57:05.415Z,1.58
2022-09-01T20:00:18.728Z,1.58
2022-09-01T20:03:25.102Z,1.15
2022-09-01T20:06:37.571Z,2.30
2022-09-01T20:10:19.190Z,1.67
2022-09-01T20:13:31.022Z,1.60
2022-09-01T20:16:41.910Z,1.83
2022-09-01T20:20:14.292Z,1.48
2022-09-01T20:23:33.260Z,1.25
2022-09-01T20:30:01.934Z,1.35
2022-09-01T20:33:13.315Z,1.52
2022-09-01T20:36:34.203Z,1.73
2022-09-01T20:39:54.919Z,1.85
2022-09-01T20:43:22.389Z,1.10
2022-09-01T20:46:26.542Z,1.40
2022-09-01T20:49:28.764Z,1.58
2022-09-01T20:52:52.227Z,1.65
2022-09-01T20:56:03.271Z,1.33
2022-09-01T20:59:20.620Z,2.08
2022-09-01T21:02:38.108Z,1.65
2022-09-01T21:05:50.347Z,1.55
2022-09-01T21:09:14.741Z,1.83
2022-09-01T21:12:28.888Z,1.40
2022-09-01T21:15:48.501Z,1.13
2022-09-01T21:18:59.522Z,1.75
2022-09-01T21:22:15.003Z,0.90
2022-09-01T21:25:18.482Z,1.15
2022-09-01T21:28:22.125Z,1.30
2022-09-01T21:31:25.095Z,1.10
2022-09-01T21:34:27.258Z,1.55
2022-09-01T21:37:29.975Z,1.17
2022-09-01T21:40:32.216Z,1.20
2022-09-01T21:43:37.506Z,1.33
2022-09-01T21:46:39.627Z,1.60
2022-09-01T21:49:42.137Z,1.20
2022-09-01T21:52:44.134Z,1.48
2022-09-01T21:55:46.330Z,1.38
2022-09-01T21:58:50.060Z,1.25
2022-09-01T22:01:52.696Z,1.33
2022-09-01T22:04:54.936Z,1.20
2022-09-01T22:07:58.569Z,1.15
2022-09-01T22:11:00.719Z,1.70
2022-09-01T22:14:03.771Z,1.48
2022-09-01T22:17:06.751Z,1.23
2022-09-01T22:20:11.084Z,1.95
2022-09-01T22:23:15.052Z,1.80
2022-09-01T22:26:26.322Z,1.35
2022-09-01T22:29:28.470Z,1.48
2022-09-01T22:32:33.086Z,1.08
2022-09-01T22:35:41.119Z,1.48
2022-09-01T22:38:43.199Z,1.40
2022-09-01T22:41:46.136Z,1.42
2022-09-01T22:44:48.621Z,1.77
2022-09-01T22:47:50.724Z,1.27
2022-09-01T22:50:53.219Z,1.60
2022-09-01T22:53:55.823Z,1.45
2022-09-01T22:56:59.431Z,1.70
2022-09-01T23:00:06.656Z,2.08
2022-09-01T23:03:08.762Z,1.48
2022-09-01T23:06:27.630Z,1.35
2022-09-01T23:09:30.508Z,2.53
2022-09-01T23:12:33.003Z,1.50
2022-09-01T23:15:35.295Z,2.13
2022-09-01T23:18:40.775Z,1.88
2022-09-01T23:21:42.895Z,2.17
2022-09-01T23:24:45.110Z,1.60
2022-09-01T23:27:47.391Z,1.33
2022-09-01T23:30:51.037Z,1.00
2022-09-01T23:33:53.926Z,1.30
2022-09-01T23:36:56.002Z,1.58
2022-09-01T23:39:58.157Z,1.45
2022-09-01T23:43:00.231Z,1.65
2022-09-01T23:46:02.967Z,1.55
2022-09-01T23:49:05.398Z,1.33
2022-09-01T23:52:08.075Z,1.83
2022-09-01T23:55:10.371Z,1.48
2022-09-01T23:58:13.686Z,1.52
